createdAt,value
2018-08-02T00:00:42.872Z,100745.13
2018-08-02T00:01:48.810Z,100742.61
2018-08-02T00:03:00.296Z,100744.05
2018-08-02T00:04:06.320Z,100742.53
2018-08-02T00:05:13.233Z,100739.81
2018-08-02T00:06:19.359Z,100736.56
2018-08-02T00:07:25.327Z,100738.61
2018-08-02T00:08:31.315Z,100739.08
2018-08-02T00:09:37.385Z,100739.26
2018-08-02T00:10:43.536Z,100741.81
2018-08-02T00:11:49.959Z,100745.52
2018-08-02T00:12:56.001Z,100741.54
2018-08-02T00:14:01.988Z,100736.73
2018-08-02T00:15:08.322Z,100729.77
2018-08-02T00:16:14.343Z,100740.28
2018-08-02T00:17:20.593Z,100734.59
2018-08-02T00:18:26.921Z,100740.22
2018-08-02T00:19:32.939Z,100740.39
2018-08-02T00:20:39.239Z,100743.89
2018-08-02T00:21:45.351Z,100744.55
2018-08-02T00:22:57.589Z,100742.50
2018-08-02T00:24:03.602Z,100746.03
2018-08-02T00:25:09.723Z,100743.21
2018-08-02T00:26:16.137Z,100751.39
2018-08-02T00:27:25.512Z,100742.45
2018-08-02T00:28:31.517Z,100747.20
2018-08-02T00:29:37.545Z,100747.20
2018-08-02T00:30:43.835Z,100755.97
2018-08-02T00:31:50.245Z,100758.01
2018-08-02T00:32:56.388Z,100758.86
2018-08-02T00:34:02.631Z,100760.25
2018-08-02T00:35:09.663Z,100762.77
2018-08-02T00:36:16.005Z,100762.16
2018-08-02T00:37:22.291Z,100768.03
2018-08-02T00:38:28.635Z,100764.67
2018-08-02T00:39:34.990Z,100767.09
2018-08-02T00:40:41.232Z,100767.36
2018-08-02T00:41:47.595Z,100771.98
2018-08-02T00:42:53.880Z,100775.78
2018-08-02T00:44:00.226Z,100772.59
2018-08-02T00:45:05.911Z,100767.30
2018-08-02T00:46:13.208Z,100779.73
2018-08-02T00:47:19.404Z,100775.43
2018-08-02T00:48:25.620Z,100780.15
2018-08-02T00:49:31.938Z,100781.72
2018-08-02T00:50:37.952Z,100782.50
2018-08-02T00:51:44.356Z,100788.10
2018-08-02T00:52:50.664Z,100790.84
2018-08-02T00:53:56.998Z,100791.50
2018-08-02T00:55:02.989Z,100796.93
2018-08-02T00:56:09.391Z,100800.66
2018-08-02T00:57:15.729Z,100796.51
2018-08-02T00:58:22.033Z,100806.81
2018-08-02T00:59:28.385Z,100807.76
2018-08-02T01:00:34.377Z,100809.16
2018-08-02T01:01:39.907Z,100807.13
2018-08-02T01:02:46.427Z,100805.34
2018-08-02T01:03:52.669Z,100816.52
2018-08-02T01:04:59.632Z,100805.59
2018-08-02T01:06:06.357Z,100813.50
2018-08-02T01:07:12.727Z,100815.53
2018-08-02T01:08:18.929Z,100819.22
2018-08-02T01:09:25.241Z,100817.77
2018-08-02T01:10:31.655Z,100822.30
2018-08-02T01:11:37.746Z,100818.97
2018-08-02T01:12:43.801Z,100823.51
2018-08-02T01:13:50.178Z,100831.39
2018-08-02T01:14:56.516Z,100827.37
2018-08-02T01:16:03.367Z,100826.60
2018-08-02T01:17:09.528Z,100821.95
2018-08-02T01:18:16.329Z,100824.15
2018-08-02T01:19:22.002Z,100833.10
2018-08-02T01:20:27.870Z,100832.53
2018-08-02T01:21:34.275Z,100825.33
2018-08-02T01:22:40.572Z,100823.98
2018-08-02T01:23:46.662Z,100831.95
2018-08-02T01:24:52.730Z,100823.16
2018-08-02T01:25:59.574Z,100824.50
2018-08-02T01:27:05.266Z,100821.88
2018-08-02T01:28:11.274Z,100823.94
2018-08-02T01:29:17.228Z,100821.68
2018-08-02T01:30:23.275Z,100814.48
2018-08-02T01:31:29.489Z,100812.98
2018-08-02T01:32:36.393Z,100821.23
2018-08-02T01:33:42.774Z,100822.98
2018-08-02T01:34:49.101Z,100820.46
2018-08-02T01:35:55.056Z,100814.45
2018-08-02T01:37:01.336Z,100819.55
2018-08-02T01:38:08.344Z,100817.91
2018-08-02T01:39:14.743Z,100818.76
2018-08-02T01:40:21.103Z,100818.98
2018-08-02T01:41:27.399Z,100818.33
2018-08-02T01:42:33.361Z,100821.23
2018-08-02T01:43:39.821Z,100820.22
2018-08-02T01:44:45.117Z,100821.17
2018-08-02T01:45:51.169Z,100813.52
2018-08-02T01:46:57.627Z,100816.30
2018-08-02T01:48:03.928Z,100819.13
2018-08-02T01:49:10.233Z,100814.25
2018-08-02T01:50:16.566Z,100812.98
2018-08-02T01:51:22.943Z,100813.12
2018-08-02T01:52:29.305Z,100817.22
2018-08-02T01:53:36.442Z,100812.41
2018-08-02T01:54:43.522Z,100811.30
2018-08-02T01:55:49.859Z,100815.25
2018-08-02T01:56:56.189Z,100816.29
2018-08-02T01:58:02.478Z,100810.30
2018-08-02T01:59:08.622Z,100811.07
2018-08-02T02:00:15.153Z,100820.33
2018-08-02T02:01:21.318Z,100817.77
2018-08-02T02:02:27.427Z,100821.38
2018-08-02T02:03:34.270Z,100823.02
2018-08-02T02:04:40.657Z,100820.81
2018-08-02T02:05:47.749Z,100826.05
2018-08-02T02:06:53.651Z,100818.72
2018-08-02T02:07:59.656Z,100820.26
2018-08-02T02:09:05.194Z,100817.22
2018-08-02T02:10:11.241Z,100822.58
2018-08-02T02:11:17.178Z,100822.58
2018-08-02T02:12:23.489Z,100827.23
2018-08-02T02:13:29.828Z,100827.11
2018-08-02T02:14:37.282Z,100825.95
2018-08-02T02:15:43.465Z,100823.28
2018-08-02T02:16:49.759Z,100826.52
2018-08-02T02:17:56.092Z,100824.27
2018-08-02T02:19:02.461Z,100828.88
2018-08-02T02:20:08.264Z,100823.86
2018-08-02T02:21:13.963Z,100842.27
2018-08-02T02:22:20.126Z,100843.34
2018-08-02T02:23:26.425Z,100845.00
2018-08-02T02:24:32.720Z,100849.75
2018-08-02T02:25:39.048Z,100847.64
2018-08-02T02:26:45.475Z,100861.53
2018-08-02T02:27:51.819Z,100858.50
2018-08-02T02:28:58.065Z,100856.38
2018-08-02T02:30:04.350Z,100859.39
2018-08-02T02:31:10.389Z,100856.02
2018-08-02T02:32:16.369Z,100867.25
2018-08-02T02:33:22.765Z,100867.24
2018-08-02T02:34:29.036Z,100872.61
2018-08-02T02:35:35.344Z,100870.90
2018-08-02T02:36:41.668Z,100874.45
2018-08-02T02:37:48.018Z,100880.64
2018-08-02T02:38:54.295Z,100879.57
2018-08-02T02:40:00.236Z,100882.94
2018-08-02T02:41:06.797Z,100890.17
2018-08-02T02:42:12.786Z,100888.96
2018-08-02T02:43:19.243Z,100896.92
2018-08-02T02:44:25.860Z,100899.74
2018-08-02T02:45:32.799Z,100905.43
2018-08-02T02:46:39.892Z,100909.97
2018-08-02T02:47:46.294Z,100909.00
2018-08-02T02:48:52.607Z,100908.70
2018-08-02T02:49:58.920Z,100908.91
2018-08-02T02:51:05.316Z,100912.89
2018-08-02T02:52:11.544Z,100911.37
2018-08-02T02:53:17.856Z,100915.31
2018-08-02T02:54:24.220Z,100914.06
2018-08-02T02:55:30.516Z,100905.91
2018-08-02T02:56:36.824Z,100907.88
2018-08-02T02:57:43.136Z,100907.30
2018-08-02T02:58:50.007Z,100902.38
2018-08-02T02:59:56.317Z,100901.30
2018-08-02T03:01:02.267Z,100895.52
2018-08-02T03:02:08.693Z,100900.42
2018-08-02T03:03:15.017Z,100901.37
2018-08-02T03:04:21.392Z,100896.02
2018-08-02T03:05:27.707Z,100900.67
2018-08-02T03:06:34.040Z,100898.05
2018-08-02T03:07:40.359Z,100903.52
2018-08-02T03:08:46.632Z,100899.72
2018-08-02T03:09:52.951Z,100899.95
2018-08-02T03:10:58.905Z,100907.02
2018-08-02T03:12:04.665Z,100920.34
2018-08-02T03:13:11.004Z,100925.55
2018-08-02T03:14:17.492Z,100935.57
2018-08-02T03:15:23.807Z,100941.50
2018-08-02T03:16:30.147Z,100938.41
2018-08-02T03:17:36.086Z,100933.23
2018-08-02T03:18:42.122Z,100944.52
2018-08-02T03:19:49.201Z,100956.33
2018-08-02T03:20:55.541Z,100961.36
2018-08-02T03:22:02.747Z,100967.85
2018-08-02T03:23:09.156Z,100968.52
2018-08-02T03:24:15.941Z,100977.94
2018-08-02T03:25:22.383Z,100972.31
2018-08-02T03:26:28.704Z,100979.42
2018-08-02T03:27:34.821Z,100977.96
2018-08-02T03:28:41.104Z,100971.21
2018-08-02T03:29:47.415Z,100972.75
2018-08-02T03:30:53.422Z,100977.45
2018-08-02T03:31:59.864Z,100975.89
2018-08-02T03:33:05.875Z,100978.27
2018-08-02T03:34:12.278Z,100986.37
2018-08-02T03:35:18.699Z,100991.61
2018-08-02T03:36:24.973Z,100989.62
2018-08-02T03:37:31.992Z,100996.80
2018-08-02T03:38:39.023Z,100996.80
2018-08-02T03:39:45.439Z,100996.69
2018-08-02T03:40:51.740Z,100992.15
2018-08-02T03:41:58.134Z,100992.87
2018-08-02T03:43:04.541Z,100987.86
2018-08-02T03:44:11.188Z,100988.83
2018-08-02T03:45:17.954Z,100992.14
2018-08-02T03:46:24.453Z,100987.11
2018-08-02T03:47:30.860Z,100986.14
2018-08-02T03:48:37.143Z,100981.16
2018-08-02T03:49:44.022Z,100983.34
2018-08-02T03:50:50.421Z,100983.14
2018-08-02T03:51:56.628Z,100977.31
2018-08-02T03:53:03.476Z,100980.04
2018-08-02T03:54:10.276Z,100973.19
2018-08-02T03:55:16.253Z,100977.77
2018-08-02T03:56:22.773Z,100971.66
2018-08-02T03:57:29.122Z,100969.04
2018-08-02T03:58:35.439Z,100966.16
2018-08-02T03:59:41.841Z,100966.80
2018-08-02T04:00:47.947Z,100971.12
2018-08-02T04:01:54.252Z,100963.52
2018-08-02T04:03:00.555Z,100968.59
2018-08-02T04:04:07.097Z,100959.88
2018-08-02T04:05:14.455Z,100959.23
2018-08-02T04:06:22.697Z,100958.16
2018-08-02T04:07:30.475Z,100960.97
2018-08-02T04:08:39.222Z,100956.53
2018-08-02T04:09:49.125Z,100956.76
2018-08-02T04:10:56.554Z,100954.94
2018-08-02T04:12:03.413Z,100955.63
2018-08-02T04:13:09.777Z,100957.45
2018-08-02T04:14:16.601Z,100953.44
2018-08-02T04:15:23.136Z,100964.64
2018-08-02T04:16:29.611Z,100962.36
2018-08-02T04:17:35.517Z,100958.47
2018-08-02T04:18:41.669Z,100962.59
2018-08-02T04:19:48.008Z,100959.44
2018-08-02T04:20:54.274Z,100954.85
2018-08-02T04:22:00.271Z,100951.36
2018-08-02T04:23:06.330Z,100948.86
2018-08-02T04:24:13.792Z,100946.61
2018-08-02T04:25:20.772Z,100946.75
2018-08-02T04:26:27.253Z,100938.90
2018-08-02T04:27:33.722Z,100938.73
2018-08-02T04:28:40.294Z,100936.55
2018-08-02T04:29:46.652Z,100932.70
2018-08-02T04:30:53.004Z,100933.22
2018-08-02T04:31:59.333Z,100925.05
2018-08-02T04:33:05.761Z,100929.97
2018-08-02T04:34:13.387Z,100925.28
2018-08-02T04:35:21.355Z,100933.50
2018-08-02T04:36:28.929Z,100935.43
2018-08-02T04:37:36.703Z,100935.11
2018-08-02T04:38:44.138Z,100937.25
2018-08-02T04:39:51.056Z,100943.98
2018-08-02T04:40:58.068Z,100944.47
2018-08-02T04:42:04.442Z,100946.94
2018-08-02T04:43:11.439Z,100945.49
2018-08-02T04:44:17.786Z,100946.52
2018-08-02T04:45:24.025Z,100946.89
2018-08-02T04:46:30.241Z,100948.59
2018-08-02T04:47:35.904Z,100955.56
2018-08-02T04:48:42.171Z,100955.73
2018-08-02T04:49:48.531Z,100954.70
2018-08-02T04:50:54.784Z,100955.20
2018-08-02T04:52:01.092Z,100957.55
2018-08-02T04:53:07.092Z,100959.64
2018-08-02T04:54:13.506Z,100962.74
2018-08-02T04:55:19.472Z,100965.16
2018-08-02T04:56:26.319Z,100963.34
2018-08-02T04:57:32.595Z,100966.07
2018-08-02T04:58:38.901Z,100968.00
2018-08-02T04:59:45.284Z,100974.95
2018-08-02T05:00:51.887Z,100981.15
2018-08-02T05:01:58.220Z,100980.89
2018-08-02T05:03:04.545Z,100980.58
2018-08-02T05:04:10.820Z,100987.66
2018-08-02T05:05:17.135Z,100987.48
2018-08-02T05:06:23.566Z,100985.83
2018-08-02T05:07:30.332Z,100991.60
2018-08-02T05:08:37.128Z,100994.05
2018-08-02T05:09:43.411Z,100992.68
2018-08-02T05:10:51.186Z,101002.37
2018-08-02T05:11:58.136Z,101007.23
2018-08-02T05:13:04.556Z,101009.86
2018-08-02T05:14:10.840Z,101012.55
2018-08-02T05:15:17.111Z,101016.77
2018-08-02T05:16:23.561Z,101023.02
2018-08-02T05:17:30.037Z,101033.73
2018-08-02T05:18:37.225Z,101031.98
2018-08-02T05:19:43.592Z,101037.97
2018-08-02T05:20:49.924Z,101045.88
2018-08-02T05:21:56.416Z,101049.77
2018-08-02T05:23:02.417Z,101047.06
2018-08-02T05:24:08.902Z,101051.23
2018-08-02T05:25:15.209Z,101057.22
2018-08-02T05:26:21.551Z,101063.16
2018-08-02T05:27:28.189Z,101058.84
2018-08-02T05:28:34.539Z,101064.16
2018-08-02T05:29:40.840Z,101060.15
2018-08-02T05:30:47.279Z,101060.58
2018-08-02T05:31:54.429Z,101062.45
2018-08-02T05:33:00.732Z,101061.80
2018-08-02T05:34:11.261Z,101060.90
2018-08-02T05:35:17.750Z,101066.58
2018-08-02T05:36:24.574Z,101061.42
2018-08-02T05:37:30.788Z,101063.05
2018-08-02T05:38:37.171Z,101060.47
2018-08-02T05:39:43.593Z,101062.56
2018-08-02T05:40:50.025Z,101059.95
2018-08-02T05:41:55.930Z,101067.75
2018-08-02T05:43:02.318Z,101067.31
2018-08-02T05:44:08.285Z,101074.70
2018-08-02T05:45:14.737Z,101069.89
2018-08-02T05:46:20.668Z,101074.78
2018-08-02T05:47:27.969Z,101075.05
2018-08-02T05:48:34.669Z,101075.10
2018-08-02T05:49:41.029Z,101072.23
2018-08-02T05:50:47.421Z,101079.95
2018-08-02T05:51:53.741Z,101082.11
2018-08-02T05:53:00.049Z,101079.97
2018-08-02T05:54:06.940Z,101082.11
2018-08-02T05:55:13.413Z,101084.47
2018-08-02T05:56:19.676Z,101086.33
2018-08-02T05:57:25.989Z,101085.42
2018-08-02T05:58:33.058Z,101083.33
2018-08-02T05:59:39.356Z,101081.63
2018-08-02T06:00:45.770Z,101078.41
2018-08-02T06:01:52.197Z,101083.07
2018-08-02T06:02:58.980Z,101077.59
2018-08-02T06:04:05.810Z,101077.81
2018-08-02T06:05:11.811Z,101077.50
2018-08-02T06:06:17.768Z,101075.67
2018-08-02T06:07:24.046Z,101078.73
2018-08-02T06:08:30.361Z,101076.80
2018-08-02T06:09:36.867Z,101085.83
2018-08-02T06:10:43.167Z,101091.37
2018-08-02T06:11:49.495Z,101092.66
2018-08-02T06:12:55.779Z,101092.00
2018-08-02T06:14:02.052Z,101104.84
2018-08-02T06:15:07.979Z,101101.63
2018-08-02T06:16:14.214Z,101107.13
2018-08-02T06:17:21.086Z,101106.12
2018-08-02T06:18:27.483Z,101113.66
2018-08-02T06:19:33.953Z,101113.46
2018-08-02T06:20:40.272Z,101115.75
2018-08-02T06:21:46.595Z,101116.28
2018-08-02T06:22:53.035Z,101127.63
2018-08-02T06:23:59.244Z,101130.92
2018-08-02T06:25:05.629Z,101135.73
2018-08-02T06:26:11.310Z,101133.25
2018-08-02T06:27:17.540Z,101131.44
2018-08-02T06:28:23.868Z,101126.26
2018-08-02T06:29:30.447Z,101129.44
2018-08-02T06:30:36.814Z,101125.28
2018-08-02T06:31:43.117Z,101129.09
2018-08-02T06:32:49.559Z,101127.10
2018-08-02T06:33:55.893Z,101127.23
2018-08-02T06:35:02.185Z,101135.33
2018-08-02T06:36:08.424Z,101132.53
2018-08-02T06:38:24.618Z,101142.07
2018-08-02T06:39:30.175Z,101142.64
2018-08-02T06:40:35.757Z,101153.09
2018-08-02T06:41:41.316Z,101156.31
2018-08-02T06:42:46.851Z,101161.05
2018-08-02T06:43:52.204Z,101159.57
2018-08-02T06:44:57.844Z,101167.99
2018-08-02T06:46:03.748Z,101173.80
2018-08-02T06:47:09.111Z,101181.48
2018-08-02T06:48:14.231Z,101189.43
2018-08-02T06:49:20.659Z,101191.40
2018-08-02T06:50:26.661Z,101197.75
2018-08-02T06:51:32.971Z,101207.35
2018-08-02T06:52:39.290Z,101212.84
2018-08-02T06:53:45.590Z,101204.70
2018-08-02T06:54:51.555Z,101212.00
2018-08-02T06:55:58.756Z,101206.41
2018-08-02T06:57:04.752Z,101205.47
2018-08-02T06:58:10.790Z,101207.17
2018-08-02T06:59:17.184Z,101205.18
2018-08-02T07:00:24.140Z,101204.21
2018-08-02T07:01:30.672Z,101202.45
2018-08-02T07:02:37.111Z,101195.44
2018-08-02T07:03:43.408Z,101192.22
2018-08-02T07:04:50.363Z,101192.63
2018-08-02T07:05:56.618Z,101185.23
2018-08-02T07:07:02.941Z,101186.66
2018-08-02T07:08:09.468Z,101188.38
2018-08-02T07:09:15.911Z,101193.88
2018-08-02T07:10:22.181Z,101193.63
2018-08-02T07:11:28.501Z,101194.15
2018-08-02T07:12:34.850Z,101196.70
2018-08-02T07:13:41.119Z,101192.84
2018-08-02T07:14:47.548Z,101189.09
2018-08-02T07:15:53.841Z,101191.59
2018-08-02T07:17:00.154Z,101183.35
2018-08-02T07:18:06.832Z,101190.02
2018-08-02T07:19:13.134Z,101181.81
2018-08-02T07:20:19.178Z,101182.85
2018-08-02T07:21:25.327Z,101188.51
2018-08-02T07:22:31.635Z,101187.47
2018-08-02T07:23:37.722Z,101184.06
2018-08-02T07:24:44.166Z,101181.75
2018-08-02T07:25:50.252Z,101184.23
2018-08-02T07:26:56.564Z,101181.38
2018-08-02T07:28:02.913Z,101181.63
2018-08-02T07:29:09.212Z,101179.27
2018-08-02T07:30:15.537Z,101181.74
2018-08-02T07:31:22.568Z,101180.34
2018-08-02T07:32:29.406Z,101181.97
2018-08-02T07:33:35.841Z,101177.03
2018-08-02T07:34:42.396Z,101176.71
2018-08-02T07:35:48.735Z,101182.23
2018-08-02T07:36:54.964Z,101181.81
2018-08-02T07:38:01.273Z,101177.42
2018-08-02T07:39:07.572Z,101180.33
2018-08-02T07:40:13.845Z,101188.19
2018-08-02T07:41:20.153Z,101184.84
2018-08-02T07:42:26.455Z,101179.85
2018-08-02T07:43:32.571Z,101180.17
2018-08-02T07:44:38.926Z,101178.89
2018-08-02T07:45:44.856Z,101184.30
2018-08-02T07:46:52.089Z,101177.98
2018-08-02T07:47:58.432Z,101178.41
2018-08-02T07:49:04.906Z,101179.51
2018-08-02T07:50:11.983Z,101174.83
2018-08-02T07:51:18.401Z,101172.91
2018-08-02T07:52:24.696Z,101170.21
2018-08-02T07:53:31.032Z,101172.39
2018-08-02T07:54:37.362Z,101172.82
2018-08-02T07:55:43.698Z,101179.25
2018-08-02T07:56:49.955Z,101181.56
2018-08-02T07:57:56.254Z,101181.98
2018-08-02T07:59:02.230Z,101183.42
2018-08-02T08:00:08.477Z,101184.14
2018-08-02T08:01:15.930Z,101187.45
2018-08-02T08:02:22.092Z,101183.15
2018-08-02T08:03:29.092Z,101185.97
2018-08-02T08:04:35.488Z,101182.66
2018-08-02T08:05:43.694Z,101182.87
2018-08-02T08:06:50.182Z,101181.41
2018-08-02T08:07:56.651Z,101178.91
2018-08-02T08:09:02.858Z,101180.55
2018-08-02T08:10:09.100Z,101183.58
2018-08-02T08:11:15.136Z,101183.27
2018-08-02T08:12:21.606Z,101180.31
2018-08-02T08:13:27.892Z,101174.45
2018-08-02T08:14:34.009Z,101173.49
2018-08-02T08:15:40.467Z,101177.62
2018-08-02T08:16:46.744Z,101172.13
2018-08-02T08:17:52.717Z,101166.97
2018-08-02T08:18:59.043Z,101170.80
2018-08-02T08:20:04.735Z,101170.53
2018-08-02T08:21:11.545Z,101169.37
2018-08-02T08:22:18.111Z,101172.43
2018-08-02T08:23:24.729Z,101163.38
2018-08-02T08:24:31.458Z,101165.84
2018-08-02T08:25:37.529Z,101161.09
2018-08-02T08:26:44.411Z,101160.84
2018-08-02T08:27:50.520Z,101161.84
2018-08-02T08:28:56.793Z,101159.34
2018-08-02T08:30:03.117Z,101162.55
2018-08-02T08:31:09.420Z,101157.45
2018-08-02T08:32:15.824Z,101153.98
2018-08-02T08:33:22.392Z,101156.13
2018-08-02T08:34:28.720Z,101158.17
2018-08-02T08:35:34.971Z,101145.89
2018-08-02T08:36:41.800Z,101154.02
2018-08-02T08:37:48.346Z,101152.17
2018-08-02T08:38:55.232Z,101150.14
2018-08-02T08:40:02.972Z,101148.75
2018-08-02T08:41:10.466Z,101148.61
2018-08-02T08:42:16.750Z,101149.31
2018-08-02T08:43:23.098Z,101139.63
2018-08-02T08:44:29.698Z,101139.52
2018-08-02T08:45:36.039Z,101143.98
2018-08-02T08:46:42.489Z,101136.29
2018-08-02T08:47:48.815Z,101138.70
2018-08-02T08:48:55.073Z,101134.25
2018-08-02T08:50:02.665Z,101134.04
2018-08-02T08:51:09.369Z,101136.94
2018-08-02T08:52:15.469Z,101137.38
2018-08-02T08:53:22.439Z,101134.45
2018-08-02T08:54:30.440Z,101129.59
2018-08-02T08:55:37.224Z,101131.59
2018-08-02T08:56:43.536Z,101127.89
2018-08-02T08:57:49.783Z,101130.89
2018-08-02T08:58:55.321Z,101128.64
2018-08-02T09:00:01.436Z,101126.28
2018-08-02T09:01:07.542Z,101123.56
2018-08-02T09:02:14.073Z,101125.77
2018-08-02T09:03:20.364Z,101124.37
2018-08-02T09:04:26.328Z,101119.23
2018-08-02T09:05:32.885Z,101121.63
2018-08-02T09:06:39.183Z,101113.71
2018-08-02T09:07:45.474Z,101109.51
2018-08-02T09:08:51.808Z,101110.42
2018-08-02T09:09:58.944Z,101105.64
2018-08-02T09:11:05.742Z,101101.35
2018-08-02T09:12:11.675Z,101103.44
2018-08-02T09:13:17.959Z,101105.94
2018-08-02T09:14:24.410Z,101104.27
2018-08-02T09:15:30.925Z,101099.20
2018-08-02T09:16:37.188Z,101097.34
2018-08-02T09:17:43.515Z,101099.94
2018-08-02T09:18:51.312Z,101095.80
2018-08-02T09:19:57.730Z,101092.98
2018-08-02T09:21:03.679Z,101096.70
2018-08-02T09:22:09.763Z,101086.13
2018-08-02T09:23:16.014Z,101083.39
2018-08-02T09:24:21.946Z,101085.55
2018-08-02T09:25:28.350Z,101082.54
2018-08-02T09:26:34.313Z,101086.34
2018-08-02T09:27:40.835Z,101081.19
2018-08-02T09:28:47.144Z,101084.92
2018-08-02T09:29:53.461Z,101083.72
2018-08-02T09:30:59.805Z,101085.49
2018-08-02T09:32:05.784Z,101083.30
2018-08-02T09:33:12.373Z,101079.77
2018-08-02T09:34:19.428Z,101078.00
2018-08-02T09:35:25.775Z,101080.19
2018-08-02T09:36:32.075Z,101080.05
2018-08-02T09:37:38.670Z,101083.94
2018-08-02T09:38:44.888Z,101086.41
2018-08-02T09:39:51.209Z,101086.41
2018-08-02T09:40:57.637Z,101086.50
2018-08-02T09:42:04.304Z,101087.56
2018-08-02T09:43:10.581Z,101084.67
2018-08-02T09:44:17.669Z,101078.49
2018-08-02T09:45:24.020Z,101083.76
2018-08-02T09:46:30.395Z,101084.77
2018-08-02T09:47:36.992Z,101079.86
2018-08-02T09:48:43.240Z,101085.53
2018-08-02T09:49:49.330Z,101074.71
2018-08-02T09:50:55.735Z,101078.82
2018-08-02T09:52:01.955Z,101079.49
2018-08-02T09:53:08.261Z,101076.69
2018-08-02T09:54:13.915Z,101077.36
2018-08-02T09:55:19.872Z,101079.12
2018-08-02T09:56:26.214Z,101081.47
2018-08-02T09:57:33.212Z,101078.72
2018-08-02T09:58:39.570Z,101081.06
2018-08-02T09:59:46.010Z,101085.15
2018-08-02T10:00:52.152Z,101085.15
2018-08-02T10:01:59.332Z,101089.10
2018-08-02T10:03:05.555Z,101086.23
2018-08-02T10:04:11.517Z,101089.47
2018-08-02T10:05:17.862Z,101089.12
2018-08-02T10:06:23.819Z,101094.22
2018-08-02T10:07:30.117Z,101098.25
2018-08-02T10:08:36.442Z,101100.96
2018-08-02T10:09:42.457Z,101096.62
2018-08-02T10:10:48.880Z,101098.97
2018-08-02T10:11:55.201Z,101095.52
2018-08-02T10:13:01.448Z,101099.36
2018-08-02T10:14:07.692Z,101097.01
2018-08-02T10:15:14.029Z,101104.69
2018-08-02T10:16:20.333Z,101098.89
2018-08-02T10:17:26.739Z,101107.16
2018-08-02T10:18:33.047Z,101103.34
2018-08-02T10:19:39.378Z,101107.08
2018-08-02T10:20:45.658Z,101107.44
2018-08-02T10:21:51.645Z,101104.87
2018-08-02T10:22:57.926Z,101100.03
2018-08-02T10:24:03.822Z,101111.32
2018-08-02T10:25:10.654Z,101111.23
2018-08-02T10:26:16.940Z,101109.45
2018-08-02T10:27:23.226Z,101111.26
2018-08-02T10:28:29.472Z,101110.51
2018-08-02T10:29:35.748Z,101103.82
2018-08-02T10:30:41.772Z,101113.42
2018-08-02T10:31:48.201Z,101112.22
2018-08-02T10:32:54.313Z,101106.83
2018-08-02T10:34:00.232Z,101106.68
2018-08-02T10:35:06.133Z,101112.55
2018-08-02T10:36:12.432Z,101103.70
2018-08-02T10:37:18.864Z,101105.92
2018-08-02T10:38:25.239Z,101108.50
2018-08-02T10:39:31.485Z,101102.63
2018-08-02T10:40:37.492Z,101104.83
2018-08-02T10:41:43.524Z,101106.28
2018-08-02T10:42:49.904Z,101111.88
2018-08-02T10:43:56.274Z,101106.53
2018-08-02T10:45:02.307Z,101107.42
2018-08-02T10:46:08.300Z,101109.23
2018-08-02T10:47:14.744Z,101107.53
2018-08-02T10:48:21.012Z,101106.90
2018-08-02T10:49:26.696Z,101102.72
2018-08-02T10:50:32.818Z,101106.80
2018-08-02T10:51:39.162Z,101112.27
2018-08-02T10:52:45.440Z,101119.11
2018-08-02T10:53:51.991Z,101114.36
2018-08-02T10:54:58.329Z,101114.84
2018-08-02T10:56:04.317Z,101112.83
2018-08-02T10:57:10.923Z,101111.86
2018-08-02T10:58:16.914Z,101110.06
2018-08-02T10:59:22.916Z,101103.19
2018-08-02T11:00:28.692Z,101111.12
2018-08-02T11:01:34.787Z,101110.17
2018-08-02T11:02:40.743Z,101109.61
2018-08-02T11:03:46.774Z,101106.67
2018-08-02T11:04:53.140Z,101102.59
2018-08-02T11:05:58.856Z,101107.55
2018-08-02T11:07:05.340Z,101111.70
2018-08-02T11:08:11.267Z,101105.09
2018-08-02T11:09:17.391Z,101111.98
2018-08-02T11:10:23.527Z,101108.98
2018-08-02T11:11:30.491Z,101107.42
2018-08-02T11:12:36.659Z,101101.69
2018-08-02T11:13:42.621Z,101093.84
2018-08-02T11:14:49.048Z,101097.20
2018-08-02T11:15:55.152Z,101103.33
2018-08-02T11:17:01.577Z,101095.31
2018-08-02T11:18:07.565Z,101094.77
2018-08-02T11:19:13.582Z,101093.84
2018-08-02T11:20:19.891Z,101090.58
2018-08-02T11:21:25.876Z,101090.78
2018-08-02T11:22:32.224Z,101090.03
2018-08-02T11:23:38.233Z,101085.33
2018-08-02T11:24:44.204Z,101085.65
2018-08-02T11:25:50.322Z,101088.27
2018-08-02T11:26:57.050Z,101082.91
2018-08-02T11:28:02.816Z,101080.05
2018-08-02T11:29:08.873Z,101081.20
2018-08-02T11:30:16.119Z,101075.12
2018-08-02T11:31:23.759Z,101085.13
2018-08-02T11:32:29.762Z,101080.05
2018-08-02T11:33:35.736Z,101082.28
2018-08-02T11:34:41.737Z,101086.02
2018-08-02T11:35:47.767Z,101083.41
2018-08-02T11:36:53.816Z,101085.83
2018-08-02T11:37:59.888Z,101081.16
2018-08-02T11:39:05.173Z,101086.66
2018-08-02T11:40:11.095Z,101082.42
2018-08-02T11:41:17.116Z,101082.14
2018-08-02T11:42:23.190Z,101077.29
2018-08-02T11:43:29.180Z,101089.12
2018-08-02T11:44:35.153Z,101079.70
2018-08-02T11:45:41.553Z,101083.91
2018-08-02T11:46:47.584Z,101082.11
2018-08-02T11:47:53.625Z,101092.97
2018-08-02T11:48:59.598Z,101088.70
2018-08-02T11:50:05.353Z,101091.23
2018-08-02T11:51:11.344Z,101086.59
2018-08-02T11:52:18.259Z,101079.23
2018-08-02T11:53:24.301Z,101083.05
2018-08-02T11:54:30.330Z,101082.96
2018-08-02T11:55:36.349Z,101076.21
2018-08-02T11:56:42.407Z,101075.92
2018-08-02T11:57:48.693Z,101074.58
2018-08-02T11:58:54.657Z,101073.51
2018-08-02T12:00:00.669Z,101069.46
2018-08-02T12:01:06.676Z,101067.43
2018-08-02T12:02:13.016Z,101068.92
2018-08-02T12:03:19.363Z,101069.81
2018-08-02T12:04:25.315Z,101063.40
2018-08-02T12:05:31.324Z,101068.29
2018-08-02T12:06:38.779Z,101061.05
2018-08-02T12:07:45.494Z,101061.64
2018-08-02T12:08:51.153Z,101063.75
2018-08-02T12:09:57.283Z,101063.36
2018-08-02T12:11:03.320Z,101060.99
2018-08-02T12:12:09.301Z,101063.27
2018-08-02T12:13:15.323Z,101061.17
2018-08-02T12:14:21.300Z,101065.11
2018-08-02T12:15:28.131Z,101057.56
2018-08-02T12:16:34.231Z,101054.93
2018-08-02T12:17:40.543Z,101051.64
2018-08-02T12:18:46.557Z,101053.77
2018-08-02T12:19:53.194Z,101051.32
2018-08-02T12:20:59.180Z,101049.69
2018-08-02T12:22:05.189Z,101055.00
2018-08-02T12:23:11.217Z,101048.53
2018-08-02T12:24:16.876Z,101050.61
2018-08-02T12:25:22.879Z,101050.08
2018-08-02T12:26:29.027Z,101051.74
2018-08-02T12:27:35.000Z,101054.11
2018-08-02T12:28:41.052Z,101040.90
2018-08-02T12:29:47.125Z,101043.78
2018-08-02T12:30:53.131Z,101045.65
2018-08-02T12:31:59.466Z,101039.72
2018-08-02T12:33:05.483Z,101039.16
2018-08-02T12:34:11.343Z,101036.59
2018-08-02T12:35:17.343Z,101035.98
2018-08-02T12:36:23.339Z,101034.86
2018-08-02T12:37:29.368Z,101036.59
2018-08-02T12:38:35.383Z,101035.03